Washington, OH (43749)

10:23 AM EDT on March 28, 2015 (GMT -0400)
Heller Drive | | Change Station
CLOSE
Current Station
Personal Weather Station
Location: Newcomerstown, OH
Elevation: 792 ft
Nearby Weather Stations

Elev 792 ft 40.27 °N, 81.61 °W | Updated 1 second ago

Clear
Clear
22.1 °F
Feels Like 22 °F
N
3.0
Wind Variable Wind from NW
Gusts 13.0 mph

Today
High -- | Low -- °F
--% Chance of Precip.
Yesterday
High -- | Low -- °F
Precip. -- in
7:17 AM 7:46 PM
Waxing Gibbous, 62% visible
Pressure 30.24 in
Visibility 10.0 miles
Clouds Mostly Cloudy 3000 ft
Overcast 3700 ft
Windchill 22 °F
Dew Point 12 °F
Humidity 63%
Rainfall 0.00 in
Snow Depth Not available.
UV 1 out of 12
Pollen 2.90 out of 12
Air Quality Not available.
Flu Activity Not available.
METAR KPHD 281353Z AUTO 33012G17KT 10SM BKN030 OVC037 M06/M13 A3020 RMK AO2 SLP239 T10611128

More Conditions Fewer Conditions

Pressure 30.24 in
Visibility 10.0 miles
Clouds Mostly Cloudy 3000 ft
Overcast 3700 ft
Windchill 22 °F
Dew Point 12 °F
Humidity 63%
Rainfall 0.00 in
Snow Depth Not available.
UV 1 out of 12
Pollen 2.90 out of 12
Air Quality Not available.
Flu Activity Not available.
METAR KPHD 281353Z AUTO 33012G17KT 10SM BKN030 OVC037 M06/M13 A3020 RMK AO2 SLP239 T10611128

More Conditions Fewer Conditions

10-Day Weather Forecast

Almanac

Astronomy

Mar. 28, 2015 Rise Set
Actual Time
Civil Twilight
Nautical Twilight
Astronomical Twilight
Moon
Length of Visible Light
Length of Day
Tomorrow will be .
, % of the Moon is Illuminated

Today's Extremes

State Highs State Lows

Community

WunderPhotos

Upload Photos

1,808,984 photos uploaded!

WunderBlogs® & News

Nearby

Air Quality

  Air Quality AQ Index Pollutant
Not available.

Snow Depth

Station Depth Elevation

Earthquake Activity

City Distance Mag. Time & Date
Minimum magnitude displayed is 2.5.

Coastal Water Temperatures

Place Temperature

Stations

Nearby Weather Stations

Station Location Temp. Windchill Dew Point Humidity Wind Precip. Elev Updated Type